Aeroporto :
LOGIN :

Iscrizione | Disclaimer

   EN    FR    IT 

 










Sommario :    VFR   VFR Marginale   IFR   IFR Intensivo   IFR Molto Intensivo
Visibilità : 
Base nubi : 
>= 8 km
>= 3000ft
5 / 8 km
1000 / 3000 ft
1500m / 5 km
500 / 1000 ft
800 / 1500m
200 / 500 ft
< 800m
< 200 ft
Simboli :   Temporali  Nebbia  Neve Forte  Precipitazioni Forti  Vento > 20 kt
SIGMETs :   Varie  Temporali  Ghiacco  Turbolenza  Onda orograficha  Ceneri Vulcaniche







- Altitudine del aeroporto : 26 ft
- Codice IATA : BIA
- Carte del aeroporto


LFKB - Bastia

ULTIMO METAR :
  • 201900Z AUTO 24004KT 9999 FEW035/// BKN056/// BKN076/// ///TCU 08/05 Q1012 TEMPO RA

METARs OBSOLETI :
  • 201830Z AUTO 21004KT 9999 SCT033/// SCT066/// OVC088/// ///TCU 08/05 Q1012 TEMPO RA
  • 201800Z AUTO 17005KT 9999 SCT062 OVC088 08/06 Q1012 TEMPO RA FEW035TCU
  • 201730Z AUTO 28003KT 9999 FEW034 BKN058 BKN076 08/05 Q1012 TEMPO RA FEW035TCU
  • 201700Z AUTO 31006KT 9999 SCT031 BKN040 BKN047 09/05 Q1011 TEMPO RA FEW035TCU
  • 201630Z AUTO 34005KT 300V360 9999 FEW029 SCT038 BKN048 09/06 Q1011 TEMPO RA FEW035TCU

TAF TAF LFKB
Valido dal 20 a 15 ore il 21 a 15 ore UTC


201400Z 2015/2115 03008KT 9999 BKN040 BKN200 TX12/2113Z TN05/2104Z
TEMPO 2018/2109 RA FEW035TCU
ATIS : +33 4 95 59 19 40
Nessun NOTAM noto per questo aeroporto.



MetMap, La meteo Aeronautica in un colpo d'occhio ! - Copyright ORBIFLY Dicembre 2007 - Disclaimer

ORBIFLY MET'MAP TEAM :

Programmazione e sviluppo : Alexandra Zaïnal
Concezione e sviluppo : Baudouin d'Aumeries
Co-Programmazione e sviluppo : Marc-Olivier Méhu
Supporto tecnico e logistico : Manuel Goepfert
Aiuto per la traduzione : Arnaldo La Scala

Contatto : metmap@orbifly.com




FONTI E CREDITI :

   NOAA